createdAt,value
2022-11-23T00:00:34.389Z,3.50
2022-11-23T00:03:05.400Z,3.45
2022-11-23T00:05:35.969Z,2.83
2022-11-23T00:08:05.383Z,2.33
2022-11-23T00:10:34.584Z,2.03
2022-11-23T00:13:03.895Z,1.65
2022-11-23T00:15:35.612Z,1.55
2022-11-23T00:18:06.146Z,1.77
2022-11-23T00:20:35.252Z,2.10
2022-11-23T00:23:04.226Z,1.50
2022-11-23T00:25:33.343Z,1.73
2022-11-23T00:28:02.415Z,1.40
2022-11-23T00:30:31.641Z,1.25
2022-11-23T00:33:01.016Z,1.40
2022-11-23T00:35:34.697Z,1.95
2022-11-23T00:38:03.848Z,2.67
2022-11-23T00:40:32.875Z,0.85
2022-11-23T00:43:04.852Z,1.20
2022-11-23T00:45:33.939Z,0.82
2022-11-23T00:48:03.039Z,1.00
2022-11-23T00:50:32.602Z,1.00
2022-11-23T00:53:03.004Z,1.42
2022-11-23T00:55:32.170Z,1.27
2022-11-23T00:58:01.225Z,1.58
2022-11-23T01:00:30.481Z,1.17
2022-11-23T01:02:59.547Z,1.20
2022-11-23T01:05:30.262Z,1.17
2022-11-23T01:08:04.230Z,1.05
2022-11-23T01:10:34.535Z,0.80
2022-11-23T01:13:03.660Z,1.00
2022-11-23T01:15:32.734Z,0.95
2022-11-23T01:18:01.831Z,2.40
2022-11-23T01:20:33.415Z,1.55
2022-11-23T01:23:04.750Z,0.60
2022-11-23T01:25:37.626Z,1.23
2022-11-23T01:28:07.183Z,0.80
2022-11-23T01:30:36.553Z,0.80
2022-11-23T01:33:06.083Z,1.73
2022-11-23T01:35:35.143Z,0.70
2022-11-23T01:38:05.673Z,1.70
2022-11-23T01:40:42.630Z,1.17
2022-11-23T01:43:17.357Z,0.60
2022-11-23T01:45:58.817Z,1.02
2022-11-23T01:48:33.538Z,1.05
2022-11-23T01:51:06.520Z,1.00
2022-11-23T01:53:39.917Z,0.93
2022-11-23T01:56:12.149Z,1.55
2022-11-23T01:58:48.864Z,1.45
2022-11-23T02:01:18.079Z,1.10
2022-11-23T02:03:50.199Z,0.88
2022-11-23T02:06:21.488Z,0.80
2022-11-23T02:08:53.706Z,1.30
2022-11-23T02:11:22.787Z,1.77
2022-11-23T02:13:54.619Z,1.20
2022-11-23T02:16:24.875Z,0.95
2022-11-23T02:18:55.862Z,1.10
2022-11-23T02:21:25.476Z,1.60
2022-11-23T02:24:04.995Z,1.23
2022-11-23T02:26:37.340Z,0.85
2022-11-23T02:29:13.159Z,1.10
2022-11-23T02:31:42.323Z,1.27
2022-11-23T02:34:11.424Z,1.20
2022-11-23T02:36:43.511Z,1.85
2022-11-23T02:39:15.550Z,2.15
2022-11-23T02:41:49.191Z,1.20
2022-11-23T02:44:38.480Z,2.50
2022-11-23T02:47:10.149Z,1.55
2022-11-23T02:49:42.657Z,1.92
2022-11-23T02:52:11.756Z,1.33
2022-11-23T02:54:40.855Z,1.27
2022-11-23T02:57:11.907Z,1.63
2022-11-23T02:59:42.922Z,1.50
2022-11-23T03:02:12.277Z,1.27
2022-11-23T03:04:41.419Z,1.33
2022-11-23T03:07:10.553Z,1.65
2022-11-23T03:09:41.323Z,1.90
2022-11-23T03:12:12.665Z,1.02
2022-11-23T03:14:41.717Z,1.25
2022-11-23T03:17:11.038Z,0.90
2022-11-23T03:19:43.388Z,1.13
2022-11-23T03:22:13.943Z,1.10
2022-11-23T03:24:43.090Z,0.70
2022-11-23T03:27:18.842Z,0.85
2022-11-23T03:29:49.115Z,0.93
2022-11-23T03:32:22.165Z,1.10
2022-11-23T03:34:55.875Z,1.75
2022-11-23T03:37:25.414Z,1.25
2022-11-23T03:39:55.316Z,1.30
2022-11-23T03:42:25.722Z,1.20
2022-11-23T03:44:54.920Z,0.80
2022-11-23T03:47:24.075Z,1.50
2022-11-23T03:49:53.377Z,3.00
2022-11-23T03:52:22.468Z,2.10
2022-11-23T03:54:51.537Z,1.08
2022-11-23T03:57:20.611Z,0.90
2022-11-23T03:59:51.544Z,1.38
2022-11-23T04:02:21.285Z,1.52
2022-11-23T04:05:01.254Z,0.90
2022-11-23T04:07:49.441Z,1.60
2022-11-23T04:10:20.238Z,1.42
2022-11-23T04:13:04.349Z,1.92
2022-11-23T04:15:35.035Z,2.40
2022-11-23T04:18:05.519Z,1.63
2022-11-23T04:20:34.614Z,3.25
2022-11-23T04:23:03.684Z,2.22
2022-11-23T04:25:33.104Z,4.22
2022-11-23T04:28:02.323Z,1.00
2022-11-23T04:30:32.227Z,1.00
2022-11-23T04:33:02.696Z,2.33
2022-11-23T04:35:32.691Z,1.30
2022-11-23T04:38:02.527Z,2.30
2022-11-23T04:40:34.610Z,1.13
2022-11-23T04:43:06.580Z,1.17
2022-11-23T04:45:40.617Z,3.42
2022-11-23T04:48:17.451Z,2.80
2022-11-23T04:50:47.030Z,5.68
2022-11-23T04:53:22.849Z,4.07
2022-11-23T04:55:52.544Z,2.05
2022-11-23T04:58:21.751Z,2.75
2022-11-23T05:00:56.647Z,1.63
2022-11-23T05:03:27.164Z,1.70
2022-11-23T05:05:59.585Z,1.02
2022-11-23T05:08:34.471Z,1.30
2022-11-23T05:11:19.942Z,4.13
2022-11-23T05:13:50.724Z,1.40
2022-11-23T05:16:20.029Z,1.80
2022-11-23T05:18:50.854Z,4.15
2022-11-23T05:21:19.895Z,1.63
2022-11-23T05:23:49.621Z,2.97
2022-11-23T05:26:20.919Z,2.55
2022-11-23T05:28:51.020Z,3.10
2022-11-23T05:31:20.658Z,1.70
2022-11-23T05:33:51.650Z,3.15
2022-11-23T05:36:29.811Z,2.63
2022-11-23T05:38:59.345Z,2.17
2022-11-23T05:41:33.249Z,1.88
2022-11-23T05:44:04.728Z,2.05
2022-11-23T05:46:33.866Z,2.38
2022-11-23T05:49:04.861Z,6.13
2022-11-23T05:51:38.831Z,4.50
2022-11-23T05:54:08.430Z,4.10
2022-11-23T05:56:48.128Z,4.68
2022-11-23T05:59:22.879Z,5.95
2022-11-23T06:01:59.958Z,5.50
2022-11-23T06:04:34.702Z,6.43
2022-11-23T06:07:04.387Z,8.45
2022-11-23T06:09:46.313Z,7.93
2022-11-23T06:12:15.441Z,6.13
2022-11-23T06:14:44.466Z,4.45
2022-11-23T06:17:15.396Z,5.75
2022-11-23T06:19:52.286Z,6.28
2022-11-23T06:22:21.356Z,6.15
2022-11-23T06:24:58.177Z,6.25
2022-11-23T06:27:41.179Z,7.55
2022-11-23T06:30:21.888Z,5.00
2022-11-23T06:32:51.198Z,5.65
2022-11-23T06:35:23.849Z,4.10
2022-11-23T06:37:54.733Z,4.35
2022-11-23T06:40:25.228Z,4.88
2022-11-23T06:43:00.292Z,3.72
2022-11-23T06:45:47.591Z,7.78
2022-11-23T06:48:18.501Z,4.97
2022-11-23T06:50:51.316Z,5.75
2022-11-23T06:53:22.759Z,6.25
2022-11-23T06:56:00.956Z,5.80
2022-11-23T06:58:32.235Z,5.05
2022-11-23T07:01:05.024Z,6.32
2022-11-23T07:03:39.779Z,5.63
2022-11-23T07:06:20.940Z,8.52
2022-11-23T07:08:52.023Z,3.78
2022-11-23T07:11:50.046Z,4.68
2022-11-23T07:14:19.696Z,10.13
2022-11-23T07:16:51.770Z,7.35
2022-11-23T07:19:21.341Z,11.23
2022-11-23T07:21:54.276Z,8.88
2022-11-23T07:24:23.553Z,9.60
2022-11-23T07:26:52.648Z,8.82
2022-11-23T07:29:22.207Z,10.07
2022-11-23T07:31:51.554Z,7.07
2022-11-23T07:34:22.356Z,7.25
2022-11-23T07:36:51.419Z,4.82
2022-11-23T07:39:32.247Z,5.22
2022-11-23T07:42:31.622Z,7.20
2022-11-23T07:45:00.938Z,7.68
2022-11-23T07:47:30.071Z,6.88
2022-11-23T07:49:59.135Z,10.70
2022-11-23T07:52:28.344Z,6.78
2022-11-23T07:55:00.265Z,6.82
2022-11-23T07:57:30.038Z,10.70
2022-11-23T07:59:59.147Z,11.90
2022-11-23T08:02:28.365Z,11.02
2022-11-23T08:04:57.492Z,7.78
2022-11-23T08:07:26.650Z,9.73
2022-11-23T08:09:55.831Z,9.70
2022-11-23T08:12:26.383Z,8.75
2022-11-23T08:14:55.430Z,12.05
2022-11-23T08:17:24.669Z,11.77
2022-11-23T08:19:53.831Z,11.40
2022-11-23T08:22:23.662Z,10.50
2022-11-23T08:24:52.676Z,9.27
2022-11-23T08:27:21.971Z,8.50
2022-11-23T08:29:52.378Z,9.15
2022-11-23T08:32:21.438Z,8.02
2022-11-23T08:34:50.372Z,10.07
2022-11-23T08:37:19.509Z,8.27
2022-11-23T08:39:48.513Z,8.32
2022-11-23T08:42:17.608Z,12.10
2022-11-23T08:44:46.997Z,9.27
2022-11-23T08:47:17.377Z,11.63
2022-11-23T08:49:46.497Z,8.40
2022-11-23T08:52:16.117Z,23.75
2022-11-23T08:54:45.200Z,10.40
2022-11-23T08:57:14.206Z,9.15
2022-11-23T08:59:43.337Z,6.68
2022-11-23T09:02:14.531Z,7.38
2022-11-23T09:04:44.940Z,8.45
2022-11-23T09:07:14.043Z,7.63
2022-11-23T09:09:43.151Z,5.18
2022-11-23T09:12:12.786Z,11.85
2022-11-23T09:14:41.909Z,8.05
2022-11-23T09:17:11.139Z,9.20
2022-11-23T09:19:40.155Z,6.80
2022-11-23T09:22:10.853Z,7.18
2022-11-23T09:24:40.044Z,5.57
2022-11-23T09:27:09.063Z,6.45
2022-11-23T09:29:38.264Z,8.02
2022-11-23T09:32:07.390Z,8.80
2022-11-23T09:34:36.503Z,8.70
2022-11-23T09:37:05.719Z,9.05
2022-11-23T09:39:36.160Z,6.63
2022-11-23T09:42:35.038Z,6.95
2022-11-23T09:45:18.966Z,7.25
2022-11-23T09:48:07.220Z,10.80
2022-11-23T09:50:48.308Z,7.07
2022-11-23T09:53:22.715Z,6.90
2022-11-23T09:55:57.179Z,5.75
2022-11-23T09:58:35.823Z,6.05
2022-11-23T10:01:09.187Z,8.80
2022-11-23T10:03:46.965Z,5.72
2022-11-23T10:06:25.458Z,6.50
2022-11-23T10:09:13.545Z,4.28
2022-11-23T10:12:08.771Z,4.45
2022-11-23T10:14:54.490Z,4.53
2022-11-23T10:17:44.693Z,4.82
2022-11-23T10:20:35.171Z,10.23
2022-11-23T10:23:09.470Z,4.50
2022-11-23T10:25:46.607Z,4.70
2022-11-23T10:28:19.964Z,8.85
2022-11-23T10:30:54.962Z,4.47
2022-11-23T10:33:31.494Z,4.70
2022-11-23T10:36:00.654Z,4.40
2022-11-23T10:38:30.039Z,9.50
2022-11-23T10:41:06.236Z,5.05
2022-11-23T10:43:45.472Z,3.72
2022-11-23T10:46:32.629Z,3.13
2022-11-23T10:49:19.235Z,3.65
2022-11-23T10:51:57.483Z,5.95
2022-11-23T10:54:32.010Z,5.20
2022-11-23T10:57:04.042Z,4.85
2022-11-23T10:59:40.046Z,3.22
2022-11-23T11:02:22.763Z,5.63
2022-11-23T11:05:13.112Z,8.68
2022-11-23T11:07:42.709Z,4.35
2022-11-23T11:10:47.000Z,3.63
2022-11-23T11:13:29.868Z,3.75
2022-11-23T11:16:03.332Z,4.05
2022-11-23T11:18:34.995Z,3.10
2022-11-23T11:21:08.158Z,3.88
2022-11-23T11:23:41.924Z,6.05
2022-11-23T11:26:20.862Z,3.03
2022-11-23T11:28:52.603Z,3.20
2022-11-23T11:31:54.411Z,2.95
2022-11-23T11:34:27.846Z,4.07
2022-11-23T11:37:05.402Z,4.63
2022-11-23T11:39:43.090Z,6.22
2022-11-23T11:42:21.226Z,5.35
2022-11-23T11:44:54.178Z,5.68
2022-11-23T11:47:32.049Z,5.80
2022-11-23T11:50:09.731Z,7.13
2022-11-23T11:52:43.579Z,5.60
2022-11-23T11:55:19.918Z,8.32
2022-11-23T11:57:52.065Z,6.28
2022-11-23T12:00:22.407Z,8.43
2022-11-23T12:03:05.456Z,7.18
2022-11-23T12:05:43.428Z,6.25
2022-11-23T12:08:16.603Z,6.30
2022-11-23T12:10:51.591Z,5.82
2022-11-23T12:13:23.664Z,4.75
2022-11-23T12:16:06.603Z,4.32
2022-11-23T12:19:04.944Z,7.28
2022-11-23T12:22:08.717Z,5.00
2022-11-23T12:25:11.680Z,4.43
2022-11-23T12:27:57.383Z,4.82
2022-11-23T12:30:35.858Z,4.55
2022-11-23T12:33:31.893Z,4.25
2022-11-23T12:36:31.298Z,5.47
2022-11-23T12:39:17.248Z,7.75
2022-11-23T12:41:55.261Z,7.95
2022-11-23T12:45:01.331Z,6.10
2022-11-23T12:47:46.452Z,8.30
2022-11-23T12:50:28.811Z,5.75
2022-11-23T12:53:14.473Z,7.80
2022-11-23T12:55:55.371Z,11.93
2022-11-23T12:58:29.038Z,9.68
2022-11-23T13:01:02.512Z,8.77
2022-11-23T13:04:32.184Z,9.88
2022-11-23T13:07:43.522Z,6.35
2022-11-23T13:10:37.026Z,6.97
2022-11-23T13:13:36.808Z,5.30
2022-11-23T13:16:26.994Z,5.63
2022-11-23T13:19:11.822Z,8.35
2022-11-23T13:21:43.018Z,6.13
2022-11-23T13:24:30.248Z,4.85
2022-11-23T13:27:43.328Z,4.15
2022-11-23T13:30:45.636Z,6.15
2022-11-23T13:33:38.533Z,7.53
2022-11-23T13:36:18.336Z,5.10
2022-11-23T13:38:48.999Z,8.45
2022-11-23T13:42:01.550Z,5.90
2022-11-23T13:44:33.586Z,7.03
2022-11-23T13:47:22.720Z,6.47
2022-11-23T13:49:53.552Z,5.25
2022-11-23T13:52:30.306Z,5.43
2022-11-23T13:55:10.064Z,5.63
2022-11-23T13:57:41.143Z,5.75
2022-11-23T14:00:51.356Z,5.88
2022-11-23T14:03:57.387Z,5.05
2022-11-23T14:06:48.750Z,5.55
2022-11-23T14:09:27.244Z,6.30
2022-11-23T14:12:09.251Z,4.80
2022-11-23T14:14:52.132Z,5.80
2022-11-23T14:18:05.011Z,5.00
2022-11-23T14:20:53.674Z,5.25
2022-11-23T14:24:08.860Z,5.80
2022-11-23T14:26:53.406Z,6.10
2022-11-23T14:29:40.803Z,6.63
2022-11-23T14:32:32.592Z,6.80
2022-11-23T14:35:25.923Z,5.25
2022-11-23T14:38:41.260Z,5.53
2022-11-23T14:41:22.034Z,5.82
2022-11-23T14:43:53.423Z,5.82
2022-11-23T14:46:25.733Z,5.22
2022-11-23T14:49:06.893Z,6.43
2022-11-23T14:51:42.777Z,6.22
2022-11-23T14:54:13.128Z,6.47
2022-11-23T14:56:46.288Z,5.80
2022-11-23T14:59:24.652Z,7.07
2022-11-23T15:01:57.559Z,6.32
2022-11-23T15:04:34.599Z,7.32
2022-11-23T15:07:12.703Z,7.65
2022-11-23T15:09:51.172Z,6.50
2022-11-23T15:12:27.071Z,8.35
2022-11-23T15:14:58.576Z,8.88
2022-11-23T15:17:28.290Z,9.43
2022-11-23T15:19:59.263Z,7.40
2022-11-23T15:22:31.354Z,7.63
2022-11-23T15:25:08.321Z,8.25
2022-11-23T15:27:45.285Z,8.60
2022-11-23T15:30:21.039Z,11.95
2022-11-23T15:33:01.855Z,10.23
2022-11-23T15:35:40.071Z,9.18
2022-11-23T15:38:22.076Z,9.52
2022-11-23T15:40:53.055Z,10.30
2022-11-23T15:43:22.557Z,9.05
2022-11-23T15:46:07.660Z,8.60
2022-11-23T15:48:39.171Z,9.32
2022-11-23T15:51:22.639Z,10.95
2022-11-23T15:53:55.204Z,9.52
2022-11-23T15:56:31.731Z,8.80
2022-11-23T15:59:03.743Z,9.68
2022-11-23T16:01:39.585Z,9.38
2022-11-23T16:04:28.764Z,9.13
2022-11-23T16:06:58.274Z,8.88
2022-11-23T16:09:57.159Z,8.38
2022-11-23T16:12:29.618Z,10.27
2022-11-23T16:15:00.634Z,8.93
2022-11-23T16:17:30.735Z,9.65
2022-11-23T16:20:04.096Z,11.45
2022-11-23T16:22:37.349Z,10.85
2022-11-23T16:25:19.229Z,9.32
2022-11-23T16:27:48.547Z,10.82
2022-11-23T16:30:25.599Z,10.75
2022-11-23T16:32:55.116Z,12.13
2022-11-23T16:35:24.171Z,11.93
2022-11-23T16:37:53.636Z,11.65
2022-11-23T16:40:24.193Z,10.80
2022-11-23T16:42:54.532Z,14.50
2022-11-23T16:45:23.863Z,11.05
2022-11-23T16:47:55.742Z,12.23
2022-11-23T16:50:25.700Z,14.43
2022-11-23T16:52:55.092Z,10.07
2022-11-23T16:55:26.910Z,11.48
2022-11-23T16:57:57.131Z,10.50
2022-11-23T17:00:27.024Z,13.77
2022-11-23T17:02:56.341Z,9.27
2022-11-23T17:05:25.708Z,10.27
2022-11-23T17:07:55.010Z,13.70
2022-11-23T17:10:25.634Z,10.32
2022-11-23T17:12:56.977Z,13.38
2022-11-23T17:15:26.330Z,11.38
2022-11-23T17:17:56.624Z,12.15
2022-11-23T17:20:25.859Z,11.20
2022-11-23T17:23:00.458Z,12.02
2022-11-23T17:25:31.134Z,11.65
2022-11-23T17:28:01.525Z,11.15
2022-11-23T17:30:31.488Z,14.10
2022-11-23T17:33:01.204Z,11.38
2022-11-23T17:35:35.366Z,11.32
2022-11-23T17:38:15.822Z,12.45
2022-11-23T17:40:47.037Z,16.58
2022-11-23T17:43:16.660Z,14.63
2022-11-23T17:45:47.184Z,16.40
2022-11-23T17:48:18.198Z,14.07
2022-11-23T17:50:48.031Z,18.25
2022-11-23T17:53:21.264Z,17.65
2022-11-23T17:55:54.635Z,20.13
2022-11-23T17:58:23.711Z,19.10
2022-11-23T18:00:52.792Z,22.33
2022-11-23T18:03:21.978Z,21.55
2022-11-23T18:05:51.303Z,19.60
2022-11-23T18:08:20.555Z,15.50
2022-11-23T18:10:49.707Z,17.63
2022-11-23T18:13:20.544Z,17.40
2022-11-23T18:15:49.999Z,17.27
2022-11-23T18:18:19.301Z,17.08
2022-11-23T18:20:49.153Z,20.63
2022-11-23T18:23:18.286Z,21.67
2022-11-23T18:25:47.828Z,22.83
2022-11-23T18:28:18.839Z,28.02
2022-11-23T18:30:49.326Z,32.90
2022-11-23T18:33:18.588Z,22.15
2022-11-23T18:35:47.788Z,21.40
2022-11-23T18:38:17.591Z,22.13
2022-11-23T18:40:48.839Z,19.75
2022-11-23T18:43:18.662Z,22.83
2022-11-23T18:45:49.689Z,22.50
2022-11-23T18:48:19.132Z,22.75
2022-11-23T18:50:48.539Z,20.25
2022-11-23T18:53:18.735Z,19.15
2022-11-23T18:55:48.365Z,25.60
2022-11-23T18:58:19.105Z,19.38
2022-11-23T19:00:51.644Z,21.45
2022-11-23T19:03:21.182Z,24.48
2022-11-23T19:05:50.559Z,20.85
2022-11-23T19:08:20.111Z,21.50
2022-11-23T19:10:49.432Z,19.17
2022-11-23T19:13:19.064Z,17.70
2022-11-23T19:15:48.948Z,19.52
2022-11-23T19:18:22.004Z,23.42
2022-11-23T19:20:51.576Z,19.58
2022-11-23T19:23:21.893Z,18.73
2022-11-23T19:25:52.296Z,20.80
2022-11-23T19:28:21.871Z,22.52
2022-11-23T19:30:51.849Z,18.98
2022-11-23T19:33:22.712Z,20.38
2022-11-23T19:35:53.070Z,24.08
2022-11-23T19:38:22.718Z,25.83
2022-11-23T19:40:56.001Z,27.00
2022-11-23T19:43:25.583Z,21.38
2022-11-23T19:45:55.965Z,27.08
2022-11-23T19:48:26.974Z,27.33
2022-11-23T19:50:57.702Z,25.30
2022-11-23T19:53:30.740Z,25.75
2022-11-23T19:56:04.286Z,22.15
2022-11-23T19:58:34.619Z,22.80
2022-11-23T20:01:07.064Z,32.08
2022-11-23T20:03:39.114Z,31.58
2022-11-23T20:06:12.394Z,31.23
2022-11-23T20:08:41.603Z,37.88
2022-11-23T20:11:12.904Z,32.53
2022-11-23T20:13:43.501Z,29.30
2022-11-23T20:16:15.670Z,30.35
2022-11-23T20:18:49.327Z,28.30
2022-11-23T20:21:20.928Z,32.50
2022-11-23T20:23:50.697Z,28.23
2022-11-23T20:26:19.813Z,30.73
2022-11-23T20:28:52.725Z,29.05
2022-11-23T20:31:24.395Z,36.30
2022-11-23T20:33:55.579Z,30.65
2022-11-23T20:36:27.363Z,30.17
2022-11-23T20:38:57.447Z,28.48
2022-11-23T20:41:28.824Z,33.10
2022-11-23T20:44:00.936Z,29.85
2022-11-23T20:47:00.058Z,34.88
2022-11-23T20:49:22.605Z,53.22
2022-11-23T20:51:51.661Z,45.45
2022-11-23T20:54:20.880Z,46.25
2022-11-23T20:56:50.091Z,39.40
2022-11-23T20:59:19.924Z,54.60
2022-11-23T21:01:49.135Z,44.13
2022-11-23T21:04:18.275Z,41.47
2022-11-23T21:06:48.856Z,40.95
2022-11-23T21:09:18.234Z,37.83
2022-11-23T21:12:04.736Z,48.47
2022-11-23T21:14:34.283Z,42.80
2022-11-23T21:17:03.679Z,46.65
2022-11-23T21:19:35.037Z,42.03
2022-11-23T21:22:08.228Z,36.72
2022-11-23T21:24:37.871Z,32.90
2022-11-23T21:27:12.175Z,29.67
2022-11-23T21:29:44.089Z,24.38
2022-11-23T21:32:14.935Z,24.00
2022-11-23T21:34:44.505Z,31.85
2022-11-23T21:37:14.959Z,39.05
2022-11-23T21:39:49.446Z,34.75
2022-11-23T21:42:21.718Z,27.13
2022-11-23T21:44:50.975Z,26.40
2022-11-23T21:47:20.178Z,40.33
2022-11-23T21:49:49.500Z,39.20
2022-11-23T21:52:19.952Z,32.40
2022-11-23T21:54:49.339Z,31.33
2022-11-23T21:57:18.529Z,35.80
2022-11-23T21:59:47.594Z,34.60
2022-11-23T22:02:16.753Z,31.55
2022-11-23T22:04:45.939Z,30.17
2022-11-23T22:07:15.210Z,31.20
2022-11-23T22:09:45.785Z,35.25
2022-11-23T22:12:14.860Z,37.72
2022-11-23T22:14:43.890Z,37.70
2022-11-23T22:17:12.969Z,43.67
2022-11-23T22:19:42.278Z,39.88
2022-11-23T22:22:11.389Z,52.00
2022-11-23T22:24:40.496Z,77.85
2022-11-23T22:27:11.233Z,59.53
2022-11-23T22:29:40.408Z,37.38
2022-11-23T22:32:09.527Z,46.03
2022-11-23T22:34:39.969Z,49.55
2022-11-23T22:37:10.931Z,47.28
2022-11-23T22:39:40.198Z,42.67
2022-11-23T22:42:10.787Z,50.63
2022-11-23T22:44:39.826Z,57.55
2022-11-23T22:47:08.998Z,45.10
2022-11-23T22:49:38.255Z,46.08
2022-11-23T22:52:07.383Z,44.58
2022-11-23T22:54:36.686Z,48.53
2022-11-23T22:57:05.981Z,44.28
2022-11-23T22:59:36.544Z,43.92
2022-11-23T23:02:05.695Z,39.75
2022-11-23T23:04:35.068Z,34.05
2022-11-23T23:07:04.557Z,38.58
2022-11-23T23:09:33.729Z,35.17
2022-11-23T23:12:03.238Z,33.63
2022-11-23T23:14:32.665Z,34.42
2022-11-23T23:17:03.523Z,35.03
2022-11-23T23:19:32.734Z,38.63
2022-11-23T23:22:01.810Z,42.72
2022-11-23T23:24:31.140Z,39.38
2022-11-23T23:27:00.604Z,40.97
2022-11-23T23:29:29.836Z,36.67
2022-11-23T23:31:58.918Z,36.38
2022-11-23T23:34:29.415Z,36.38
2022-11-23T23:36:58.492Z,35.55
2022-11-23T23:39:27.988Z,30.00
2022-11-23T23:41:57.048Z,33.42
2022-11-23T23:44:26.060Z,34.95
2022-11-23T23:46:55.275Z,31.52
2022-11-23T23:49:24.574Z,35.58
2022-11-23T23:51:55.009Z,28.85
2022-11-23T23:54:24.197Z,36.50
2022-11-23T23:56:53.350Z,36.33
2022-11-23T23:59:23.583Z,38.00
